Time;durP1;ratioP1;P1;durP2;ratioP2;P2;SDS_P1;SDS_P2;PMS_P1;PMS_P2;Temp;Humidity;BMP_temperature;BMP_pressure;BME280_temperature;BME280_humidity;BME280_pressure;Samples;Min_cycle;Max_cycle;Signal;HPM_P1;HPM_P2
2022/07/08 00:00:45;;;;;;;1.63;0.65;;;14.40;99.90;;;;;;5001693;28;20107;-75
2022/07/08 00:03:11;;;;;;;0.75;0.60;;;14.30;99.90;;;;;;5018315;28;20566;-75
2022/07/08 00:05:38;;;;;;;1.30;0.45;;;14.30;99.90;;;;;;5001785;28;20167;-75
2022/07/08 00:08:04;;;;;;;1.17;0.50;;;14.40;99.90;;;;;;4985480;28;20124;-75
2022/07/08 00:10:30;;;;;;;1.75;0.40;;;14.30;99.90;;;;;;5017854;28;20045;-75
2022/07/08 00:12:55;;;;;;;1.70;0.63;;;14.40;99.90;;;;;;5014381;28;20049;-75
2022/07/08 00:15:21;;;;;;;1.05;0.57;;;14.30;99.90;;;;;;4998399;28;20034;-75
2022/07/08 00:17:48;;;;;;;7.57;0.90;;;14.40;99.90;;;;;;5014231;28;20052;-75
2022/07/08 00:20:13;;;;;;;1.33;0.80;;;14.30;99.90;;;;;;5014653;28;20050;-75
2022/07/08 00:22:39;;;;;;;1.65;0.80;;;14.30;99.90;;;;;;4998027;28;20034;-75
2022/07/08 00:25:05;;;;;;;5.57;0.68;;;14.30;99.90;;;;;;5014245;28;20042;-75
2022/07/08 00:27:31;;;;;;;1.42;0.50;;;14.30;99.90;;;;;;5014533;28;20049;-75
2022/07/08 00:29:57;;;;;;;3.35;0.43;;;14.30;99.90;;;;;;5014192;28;20053;-75
2022/07/08 00:32:23;;;;;;;2.13;0.65;;;14.20;99.90;;;;;;5014221;28;20053;-75
2022/07/08 00:34:49;;;;;;;3.22;0.50;;;14.20;99.90;;;;;;4997782;28;20480;-75
2022/07/08 00:37:14;;;;;;;0.70;0.40;;;14.20;99.90;;;;;;5014033;28;20068;-75
2022/07/08 00:39:40;;;;;;;2.72;0.60;;;14.20;99.90;;;;;;5014027;28;20037;-75
2022/07/08 00:42:06;;;;;;;1.90;0.57;;;14.20;99.90;;;;;;4997912;28;20092;-75
2022/07/08 00:44:32;;;;;;;0.82;0.63;;;14.20;99.90;;;;;;4997568;28;20049;-75
2022/07/08 00:46:58;;;;;;;3.85;0.80;;;14.20;99.90;;;;;;5013848;28;20121;-75
2022/07/08 00:49:24;;;;;;;0.40;0.40;;;14.20;99.90;;;;;;5013870;28;20125;-75
2022/07/08 00:51:50;;;;;;;3.65;0.60;;;14.20;99.90;;;;;;5013790;28;20029;-75
2022/07/08 00:54:19;;;;;;;3.03;0.50;;;14.20;99.90;;;;;;4998022;28;20049;-75
2022/07/08 00:56:44;;;;;;;0.95;0.60;;;14.10;99.90;;;;;;4997384;28;20042;-75
2022/07/08 00:59:11;;;;;;;0.82;0.55;;;14.10;99.90;;;;;;4997249;28;20408;-75
2022/07/08 01:01:37;;;;;;;3.80;0.80;;;14.10;99.90;;;;;;4996765;28;20112;-75
2022/07/08 01:04:03;;;;;;;2.17;0.50;;;14.10;99.90;;;;;;5013554;28;20038;-75
2022/07/08 01:06:29;;;;;;;1.45;0.68;;;14.00;99.90;;;;;;4997280;28;20104;-75
2022/07/08 01:08:55;;;;;;;1.08;0.60;;;14.00;99.90;;;;;;4997143;28;20046;-75
2022/07/08 01:11:21;;;;;;;1.00;0.52;;;14.00;99.90;;;;;;4996979;28;20054;-75
2022/07/08 01:13:47;;;;;;;0.50;0.30;;;13.90;99.90;;;;;;4997119;28;20058;-75
2022/07/08 01:16:13;;;;;;;1.88;0.70;;;13.90;99.90;;;;;;5013575;28;20198;-75
2022/07/08 01:18:40;;;;;;;1.05;0.60;;;13.80;99.90;;;;;;4996887;28;20069;-75
2022/07/08 01:21:07;;;;;;;5.05;0.77;;;13.80;99.90;;;;;;5013232;28;20121;-75
2022/07/08 01:23:32;;;;;;;3.08;0.80;;;13.70;99.90;;;;;;5013212;28;20060;-75
2022/07/08 01:25:59;;;;;;;3.33;0.52;;;13.70;99.90;;;;;;5013072;28;20042;-75
2022/07/08 01:28:26;;;;;;;0.93;0.65;;;13.60;99.90;;;;;;4997059;28;20037;-75
2022/07/08 01:30:52;;;;;;;1.15;0.40;;;13.60;99.90;;;;;;5013045;28;20058;-75
2022/07/08 01:33:18;;;;;;;0.75;0.57;;;13.60;99.90;;;;;;5013042;28;20042;-75
2022/07/08 01:35:44;;;;;;;0.60;0.30;;;13.60;99.90;;;;;;5012990;28;20046;-75
2022/07/08 01:38:10;;;;;;;1.77;0.45;;;13.60;99.90;;;;;;5012887;28;20433;-75
2022/07/08 01:40:35;;;;;;;2.20;0.60;;;13.60;99.90;;;;;;5012857;28;20036;-75
2022/07/08 01:43:02;;;;;;;0.50;0.50;;;13.60;99.90;;;;;;4996459;28;20540;-75
2022/07/08 01:45:27;;;;;;;2.28;0.70;;;13.50;99.90;;;;;;5012818;28;20034;-75
2022/07/08 01:47:53;;;;;;;2.55;0.60;;;13.50;99.90;;;;;;4996443;28;20096;-75
2022/07/08 01:50:19;;;;;;;0.63;0.38;;;13.40;99.90;;;;;;4996298;28;20080;-75
2022/07/08 01:52:44;;;;;;;1.05;0.50;;;13.40;99.90;;;;;;4996281;28;20413;-75
2022/07/08 01:55:10;;;;;;;2.08;0.73;;;13.40;99.90;;;;;;5012908;28;20092;-75
2022/07/08 01:57:36;;;;;;;1.10;0.50;;;13.40;99.90;;;;;;4996407;28;20046;-75
2022/07/08 02:00:03;;;;;;;1.20;0.55;;;13.30;99.90;;;;;;4996465;28;20077;-75
2022/07/08 02:02:29;;;;;;;2.25;0.57;;;13.30;99.90;;;;;;5012510;28;20042;-75
2022/07/08 02:04:55;;;;;;;1.55;0.50;;;13.30;99.90;;;;;;5012430;28;20136;-75
2022/07/08 02:07:20;;;;;;;3.53;0.70;;;13.30;99.90;;;;;;4996259;28;20048;-75
2022/07/08 02:09:46;;;;;;;1.98;0.65;;;13.30;99.90;;;;;;4996009;28;20042;-75
2022/07/08 02:12:21;;;;;;;0.68;0.40;;;13.30;99.90;;;;;;5012229;28;20406;-75
2022/07/08 02:15:07;;;;;;;2.05;0.52;;;13.30;99.90;;;;;;5012266;28;20050;-75
2022/07/08 02:17:43;;;;;;;2.63;0.82;;;13.20;99.90;;;;;;5012247;28;20041;-75
2022/07/08 02:20:11;;;;;;;1.75;0.70;;;13.20;99.90;;;;;;4996171;28;20125;-75
2022/07/08 02:22:37;;;;;;;3.55;1.23;;;13.20;99.90;;;;;;5012153;28;20033;-75
2022/07/08 02:25:03;;;;;;;4.47;0.38;;;13.10;99.90;;;;;;4995790;28;20049;-75
2022/07/08 02:27:29;;;;;;;8.13;0.70;;;13.10;99.90;;;;;;4995776;28;20135;-75
2022/07/08 02:29:55;;;;;;;3.95;1.00;;;13.00;99.90;;;;;;5012372;28;20508;-75
2022/07/08 02:32:20;;;;;;;1.17;0.57;;;13.00;99.90;;;;;;4996150;28;20042;-75
2022/07/08 02:34:46;;;;;;;1.90;0.50;;;13.00;99.90;;;;;;5011932;28;20038;-75
2022/07/08 02:37:13;;;;;;;1.40;0.70;;;12.90;99.90;;;;;;4995791;28;20050;-75
2022/07/08 02:39:39;;;;;;;1.20;0.68;;;12.90;99.90;;;;;;5012152;28;20128;-75
2022/07/08 02:42:05;;;;;;;4.20;0.60;;;12.90;99.90;;;;;;5011922;28;20054;-75
2022/07/08 02:44:31;;;;;;;1.50;1.00;;;12.90;99.90;;;;;;5011931;28;20493;-74
2022/07/08 02:46:57;;;;;;;3.20;0.65;;;12.80;99.90;;;;;;5011887;28;20145;-75
2022/07/08 02:49:23;;;;;;;2.00;0.60;;;12.80;99.90;;;;;;4995461;28;20046;-75
2022/07/08 02:51:48;;;;;;;1.08;0.60;;;12.80;99.90;;;;;;5011887;28;20460;-75
2022/07/08 02:54:14;;;;;;;0.73;0.40;;;12.80;99.90;;;;;;5011795;28;20129;-75
2022/07/08 02:56:40;;;;;;;0.80;0.43;;;12.70;99.90;;;;;;4995372;28;20034;-75
2022/07/08 02:59:06;;;;;;;4.60;0.90;;;12.70;99.90;;;;;;4995381;28;20042;-75
2022/07/08 03:01:32;;;;;;;2.17;0.90;;;12.70;99.90;;;;;;4995492;28;20041;-75
2022/07/08 03:03:57;;;;;;;1.35;0.60;;;13.10;99.90;;;;;;5011921;28;20041;-75
2022/07/08 03:06:23;;;;;;;1.73;0.75;;;12.70;99.90;;;;;;5011691;28;20077;-75
2022/07/08 03:08:49;;;;;;;2.05;0.50;;;13.50;99.90;;;;;;5011696;28;20049;-75
2022/07/08 03:11:15;;;;;;;0.50;0.50;;;12.70;99.90;;;;;;4995380;28;20120;-75
2022/07/08 03:13:40;;;;;;;2.35;0.50;;;12.70;99.90;;;;;;5011627;28;20046;-75
2022/07/08 03:16:07;;;;;;;5.15;0.68;;;12.60;99.90;;;;;;5011582;28;20038;-75
2022/07/08 03:18:34;;;;;;;2.42;0.52;;;12.60;99.90;;;;;;5011504;28;20038;-75
2022/07/08 03:20:59;;;;;;;1.92;0.60;;;12.60;99.90;;;;;;5011855;28;20041;-75
2022/07/08 03:23:25;;;;;;;3.55;0.68;;;12.70;99.90;;;;;;5011859;28;20041;-75
2022/07/08 03:25:51;;;;;;;0.93;0.50;;;12.60;99.90;;;;;;5014803;28;20044;-75
2022/07/08 03:28:16;;;;;;;3.03;0.75;;;12.60;99.90;;;;;;5015599;28;20042;-75
2022/07/08 03:30:42;;;;;;;2.17;0.60;;;12.60;99.90;;;;;;5015325;28;20041;-75
2022/07/08 03:33:08;;;;;;;5.15;0.75;;;12.70;99.90;;;;;;5015462;28;20092;-75
2022/07/08 03:35:34;;;;;;;1.23;0.60;;;12.60;99.90;;;;;;5015237;28;20041;-75
2022/07/08 03:37:59;;;;;;;1.25;0.60;;;12.60;99.90;;;;;;5015098;28;20045;-75
2022/07/08 03:43:09;;;;;;;4.60;0.80;;;12.60;99.90;;;;;;5015297;28;20042;-75
2022/07/08 03:45:35;;;;;;;5.38;1.02;;;12.60;99.90;;;;;;5015320;28;20060;-75
2022/07/08 03:48:02;;;;;;;1.13;0.77;;;12.60;99.90;;;;;;4998635;28;20074;-75
2022/07/08 03:50:28;;;;;;;1.23;0.55;;;12.60;99.90;;;;;;4998874;28;20041;-75
2022/07/08 03:52:54;;;;;;;3.05;1.02;;;12.60;99.90;;;;;;4998594;28;20038;-75
2022/07/08 03:55:24;;;;;;;1.08;0.57;;;12.60;99.90;;;;;;5014867;28;20129;-75
2022/07/08 03:57:51;;;;;;;3.30;0.73;;;12.50;99.90;;;;;;5015329;28;20456;-75
2022/07/08 04:00:17;;;;;;;1.50;0.82;;;12.50;99.90;;;;;;5015108;28;20069;-75
2022/07/08 04:02:42;;;;;;;0.60;0.60;;;12.50;99.90;;;;;;5014982;28;20037;-75
2022/07/08 04:05:08;;;;;;;5.63;0.70;;;12.50;99.90;;;;;;5014697;28;20045;-75
2022/07/08 04:07:34;;;;;;;4.05;0.57;;;12.50;99.90;;;;;;4998720;28;20089;-75
2022/07/08 04:10:00;;;;;;;1.13;0.70;;;12.60;99.90;;;;;;5014836;28;20049;-75
2022/07/08 04:12:26;;;;;;;2.70;0.70;;;12.60;99.90;;;;;;4997937;28;20057;-75
2022/07/08 04:14:52;;;;;;;2.03;0.75;;;12.60;99.90;;;;;;5014522;28;20116;-75
2022/07/08 04:17:17;;;;;;;3.40;0.90;;;12.60;99.90;;;;;;5014610;28;20628;-75
2022/07/08 04:19:43;;;;;;;1.00;0.68;;;12.60;99.90;;;;;;5014828;28;20045;-75
2022/07/08 04:22:09;;;;;;;1.70;0.90;;;12.60;99.90;;;;;;4998551;28;20045;-75
2022/07/08 04:24:34;;;;;;;1.02;0.57;;;13.20;99.90;;;;;;5014621;28;20132;-75
2022/07/08 04:27:00;;;;;;;2.25;0.88;;;12.90;99.90;;;;;;5014261;28;20041;-75
2022/07/08 04:29:26;;;;;;;0.98;0.65;;;12.70;99.90;;;;;;4997927;28;20037;-75
2022/07/08 04:31:51;;;;;;;4.82;1.13;;;12.70;99.90;;;;;;4997890;28;20057;-75
2022/07/08 04:34:17;;;;;;;0.93;0.73;;;13.10;99.90;;;;;;5014155;28;20394;-75
2022/07/08 04:36:43;;;;;;;2.92;1.00;;;12.80;99.90;;;;;;4996505;28;20485;-75
2022/07/08 04:39:09;;;;;;;2.97;1.10;;;12.80;99.90;;;;;;5014012;28;20081;-75
2022/07/08 04:41:35;;;;;;;2.08;1.02;;;12.90;99.90;;;;;;5014056;28;20042;-75
2022/07/08 04:44:00;;;;;;;6.35;0.98;;;12.90;99.90;;;;;;5013993;28;20476;-75
2022/07/08 04:46:29;;;;;;;2.88;1.00;;;12.90;99.90;;;;;;5014110;28;20046;-75
2022/07/08 04:48:54;;;;;;;4.93;1.27;;;13.00;99.90;;;;;;4997507;28;20042;-75
2022/07/08 04:51:20;;;;;;;1.30;0.75;;;13.00;99.90;;;;;;5014582;28;20084;-74
2022/07/08 04:53:46;;;;;;;3.67;0.95;;;13.10;99.90;;;;;;5013805;28;20045;-74
2022/07/08 04:56:11;;;;;;;4.82;1.02;;;13.10;99.90;;;;;;4997396;28;20080;-74
2022/07/08 04:58:37;;;;;;;1.02;0.80;;;13.80;99.90;;;;;;5013717;28;20050;-74
2022/07/08 05:01:03;;;;;;;1.92;0.98;;;13.50;99.90;;;;;;5013825;28;20038;-74
2022/07/08 05:03:28;;;;;;;0.80;0.68;;;13.40;99.90;;;;;;4997245;28;20130;-74
2022/07/08 05:05:54;;;;;;;4.20;1.00;;;13.50;99.90;;;;;;4997150;28;20042;-75
2022/07/08 05:08:20;;;;;;;6.00;1.15;;;13.60;99.90;;;;;;5013444;28;20050;-75
2022/07/08 05:10:46;;;;;;;0.75;0.60;;;13.70;99.90;;;;;;5013732;28;20046;-75
2022/07/08 05:13:12;;;;;;;2.67;1.08;;;13.90;99.90;;;;;;5013298;28;20093;-74
2022/07/08 05:15:38;;;;;;;1.88;0.90;;;14.10;99.90;;;;;;4997264;28;20500;-75
2022/07/08 05:18:04;;;;;;;2.35;0.93;;;14.20;99.90;;;;;;5013255;28;20046;-74
2022/07/08 05:20:30;;;;;;;2.25;0.95;;;14.20;99.90;;;;;;4997204;28;20038;-74
2022/07/08 05:22:56;;;;;;;4.38;0.90;;;14.30;99.90;;;;;;5013192;28;20048;-73
2022/07/08 05:25:22;;;;;;;1.77;0.82;;;14.40;99.90;;;;;;5013170;28;20038;-75
2022/07/08 05:27:47;;;;;;;2.15;0.88;;;14.40;99.90;;;;;;5013054;28;20050;-78
2022/07/08 05:30:14;;;;;;;2.80;1.17;;;14.50;99.90;;;;;;5013107;28;20096;-72
2022/07/08 05:32:41;;;;;;;2.03;0.80;;;14.60;99.90;;;;;;5013075;28;20124;-73
2022/07/08 05:35:08;;;;;;;1.38;0.80;;;14.70;99.90;;;;;;4996567;28;20049;-72
2022/07/08 05:37:37;;;;;;;8.30;1.08;;;14.70;99.90;;;;;;5013136;28;20427;-73
2022/07/08 05:40:12;;;;;;;4.50;0.60;;;14.80;99.90;;;;;;5013391;28;20049;-71
2022/07/08 05:42:39;;;;;;;6.05;0.70;;;14.80;99.90;;;;;;5013129;28;20034;-72
2022/07/08 05:45:06;;;;;;;9.52;1.10;;;14.80;99.90;;;;;;5013167;28;20478;-74
2022/07/08 05:47:31;;;;;;;2.35;1.13;;;14.80;99.90;;;;;;5013260;28;20485;-73
2022/07/08 05:49:57;;;;;;;2.17;0.93;;;14.90;99.90;;;;;;5013615;28;20120;-84
2022/07/08 05:52:23;;;;;;;4.32;1.02;;;15.00;99.90;;;;;;5012807;28;20489;-72
2022/07/08 05:54:49;;;;;;;3.67;0.93;;;15.20;99.90;;;;;;5013231;28;20041;-71
2022/07/08 05:57:16;;;;;;;0.90;0.60;;;15.50;99.90;;;;;;5012799;28;20387;-77
2022/07/08 05:59:42;;;;;;;1.60;0.70;;;15.30;99.90;;;;;;4996619;28;20124;-75
2022/07/08 06:02:08;;;;;;;2.10;0.93;;;15.40;99.90;;;;;;5012650;28;20037;-84
2022/07/08 06:04:34;;;;;;;3.08;0.90;;;15.50;99.90;;;;;;4996223;28;20099;-73
2022/07/08 06:07:00;;;;;;;4.93;0.60;;;15.60;99.90;;;;;;5013520;28;20565;-74
2022/07/08 06:09:25;;;;;;;2.45;0.75;;;15.60;99.90;;;;;;4996464;28;20397;-74
2022/07/08 06:11:51;;;;;;;0.90;0.70;;;15.60;99.90;;;;;;5012699;28;20057;-73
2022/07/08 06:14:18;;;;;;;1.90;0.57;;;15.80;99.90;;;;;;5012436;28;20442;-72
2022/07/08 06:16:48;;;;;;;2.42;0.75;;;15.90;99.90;;;;;;5012283;28;20390;-75
2022/07/08 06:19:14;;;;;;;1.08;0.57;;;15.90;99.90;;;;;;5012226;28;20057;-74
2022/07/08 06:21:40;;;;;;;6.10;0.90;;;15.90;99.90;;;;;;5012248;28;20049;-74
2022/07/08 06:24:06;;;;;;;1.58;0.65;;;16.00;99.90;;;;;;5012152;28;20485;-74
2022/07/08 06:26:32;;;;;;;4.10;0.90;;;16.00;99.90;;;;;;5012175;28;20041;-74
2022/07/08 06:28:57;;;;;;;0.70;0.45;;;16.00;99.90;;;;;;5012011;28;20125;-74
2022/07/08 06:31:23;;;;;;;2.25;0.90;;;15.90;99.90;;;;;;5012122;28;20433;-74
2022/07/08 06:33:49;;;;;;;2.72;0.82;;;16.00;99.90;;;;;;5012116;28;20049;-74
2022/07/08 06:36:15;;;;;;;0.85;0.60;;;16.00;99.90;;;;;;4995734;28;20493;-74
2022/07/08 06:38:41;;;;;;;0.75;0.60;;;16.00;99.90;;;;;;4995559;28;20176;-75
2022/07/08 06:41:06;;;;;;;2.17;0.93;;;16.10;99.90;;;;;;5011834;28;20037;-75
2022/07/08 06:43:32;;;;;;;0.95;0.50;;;16.10;99.90;;;;;;5011789;28;20588;-74
2022/07/08 06:45:58;;;;;;;1.48;0.65;;;16.20;99.90;;;;;;5011716;28;20034;-75
2022/07/08 06:48:25;;;;;;;3.85;0.95;;;16.20;99.90;;;;;;4995412;28;20041;-74
2022/07/08 06:50:50;;;;;;;3.25;0.93;;;16.30;99.90;;;;;;4995360;28;20049;-77
2022/07/08 06:53:16;;;;;;;1.50;0.82;;;16.30;99.90;;;;;;5011690;28;20413;-75
2022/07/08 06:55:42;;;;;;;1.10;0.80;;;16.40;99.90;;;;;;5011600;28;20125;-74
2022/07/08 06:58:07;;;;;;;2.83;0.93;;;16.50;99.90;;;;;;5011441;28;20046;-74
2022/07/08 07:00:33;;;;;;;1.10;0.70;;;16.60;99.90;;;;;;4997990;28;20042;-75
2022/07/08 07:02:59;;;;;;;3.20;1.00;;;16.70;99.90;;;;;;5016255;28;20042;-74
2022/07/08 07:05:25;;;;;;;7.97;0.77;;;16.80;99.90;;;;;;5015620;28;20096;-75
2022/07/08 07:07:50;;;;;;;4.07;0.70;;;16.80;99.90;;;;;;5015517;28;20425;-76
2022/07/08 07:10:16;;;;;;;1.48;0.80;;;16.90;99.90;;;;;;4999454;28;20486;-75
2022/07/08 07:12:42;;;;;;;2.38;0.98;;;16.90;99.90;;;;;;4999106;28;20057;-75
2022/07/08 07:15:08;;;;;;;3.50;0.80;;;17.00;99.90;;;;;;5015593;28;20389;-75
2022/07/08 07:17:34;;;;;;;1.08;0.75;;;17.00;99.90;;;;;;5015707;28;20081;-75
2022/07/08 07:19:59;;;;;;;1.90;0.82;;;17.00;99.90;;;;;;5015560;28;20088;-75
2022/07/08 07:22:25;;;;;;;1.50;0.70;;;17.10;99.90;;;;;;5015574;28;20052;-76
2022/07/08 07:24:51;;;;;;;2.10;0.82;;;17.20;99.90;;;;;;5015698;28;20037;-75
2022/07/08 07:27:16;;;;;;;2.13;0.70;;;17.30;99.90;;;;;;5015436;28;20478;-75
2022/07/08 07:29:42;;;;;;;1.02;0.75;;;17.30;99.90;;;;;;4999290;28;20124;-76
2022/07/08 07:32:08;;;;;;;2.60;0.60;;;17.30;99.90;;;;;;5015254;28;20091;-76
2022/07/08 07:34:34;;;;;;;0.75;0.40;;;17.40;99.90;;;;;;5015186;28;20085;-75
2022/07/08 07:37:00;;;;;;;1.08;0.68;;;17.40;99.90;;;;;;5015233;28;20038;-76
2022/07/08 07:39:25;;;;;;;4.20;0.90;;;17.40;99.90;;;;;;5015011;28;20076;-75
2022/07/08 07:41:51;;;;;;;6.57;0.85;;;17.40;99.90;;;;;;5015161;28;20038;-76
2022/07/08 07:44:17;;;;;;;1.95;0.75;;;17.50;99.90;;;;;;4998944;28;20394;-76
2022/07/08 07:46:43;;;;;;;1.38;0.57;;;17.60;99.90;;;;;;5014969;28;20038;-75
2022/07/08 07:49:08;;;;;;;2.55;1.10;;;17.70;99.90;;;;;;5015181;28;20501;-76
2022/07/08 07:51:34;;;;;;;1.50;0.80;;;17.80;99.90;;;;;;5014863;28;20096;-75
2022/07/08 07:54:00;;;;;;;2.10;0.93;;;17.80;99.90;;;;;;5014702;28;20045;-75
2022/07/08 07:56:25;;;;;;;1.50;0.70;;;17.80;99.90;;;;;;5014886;28;20107;-75
2022/07/08 07:58:51;;;;;;;3.10;0.70;;;17.70;99.90;;;;;;5014684;28;20133;-75
2022/07/08 08:01:17;;;;;;;1.70;0.80;;;17.70;99.90;;;;;;5014696;28;20037;-75
2022/07/08 08:03:43;;;;;;;1.45;0.60;;;17.70;99.90;;;;;;5014653;28;20061;-75
2022/07/08 08:06:09;;;;;;;5.00;0.85;;;17.70;99.90;;;;;;5015791;28;20405;-74
2022/07/08 08:08:35;;;;;;;2.88;0.77;;;17.70;99.90;;;;;;5014687;28;20045;-74
2022/07/08 08:11:02;;;;;;;1.73;0.88;;;17.60;99.90;;;;;;5014421;28;20133;-74
2022/07/08 08:13:28;;;;;;;1.27;0.50;;;17.60;99.90;;;;;;4985543;28;20041;-74
2022/07/08 08:15:55;;;;;;;3.97;0.95;;;17.70;99.90;;;;;;5017928;28;20038;-75
2022/07/08 08:18:20;;;;;;;0.50;0.50;;;17.80;99.90;;;;;;4984959;28;20042;-74
2022/07/08 08:20:46;;;;;;;1.98;0.82;;;17.80;99.90;;;;;;4984924;28;20041;-74
2022/07/08 08:23:12;;;;;;;2.47;1.20;;;17.90;99.90;;;;;;5001183;28;20038;-75
2022/07/08 08:25:38;;;;;;;1.40;0.55;;;17.90;99.90;;;;;;5017455;28;20128;-75
2022/07/08 08:28:04;;;;;;;1.17;0.68;;;17.90;99.90;;;;;;5017399;28;20091;-74
2022/07/08 08:30:30;;;;;;;1.90;0.73;;;17.90;99.90;;;;;;5017437;28;20046;-75
2022/07/08 08:32:57;;;;;;;2.83;0.50;;;17.80;99.90;;;;;;4985053;28;20041;-75
2022/07/08 08:35:24;;;;;;;3.60;0.52;;;17.80;99.90;;;;;;5017719;28;20374;-75
2022/07/08 08:37:50;;;;;;;5.30;0.73;;;17.90;99.90;;;;;;5000951;28;20433;-75
2022/07/08 08:40:16;;;;;;;2.95;0.63;;;17.90;99.90;;;;;;5000981;28;20083;-75
2022/07/08 08:42:42;;;;;;;1.88;0.60;;;18.00;99.90;;;;;;5000960;28;20137;-76
2022/07/08 08:45:10;;;;;;;1.80;0.90;;;18.10;99.90;;;;;;5017257;28;20041;-80
2022/07/08 08:47:37;;;;;;;3.03;0.82;;;18.30;99.90;;;;;;5017187;28;20038;-78
2022/07/08 08:52:55;;;;;;;2.05;0.90;;;18.40;99.90;;;;;;5016960;28;20469;-80
2022/07/08 08:55:29;;;;;;;1.33;0.50;;;18.50;99.90;;;;;;5017315;28;20037;-80
2022/07/08 08:57:57;;;;;;;1.92;0.70;;;18.60;99.90;;;;;;5000939;28;20038;-80
2022/07/08 09:00:24;;;;;;;1.83;0.65;;;18.50;99.90;;;;;;5017277;28;20048;-80
2022/07/08 09:02:51;;;;;;;2.08;0.80;;;18.60;99.90;;;;;;5017409;28;20045;-81
2022/07/08 09:05:17;;;;;;;3.15;0.88;;;18.50;99.90;;;;;;5000803;28;20400;-80
2022/07/08 09:07:44;;;;;;;2.38;0.73;;;18.50;99.90;;;;;;4984697;28;20099;-81
2022/07/08 09:10:09;;;;;;;1.33;0.80;;;18.50;99.90;;;;;;5000390;28;20095;-77
2022/07/08 09:12:35;;;;;;;3.17;0.80;;;18.50;99.90;;;;;;5000370;28;20061;-76
2022/07/08 09:15:01;;;;;;;4.72;0.98;;;18.50;99.90;;;;;;4984163;28;20045;-76
2022/07/08 09:17:27;;;;;;;4.15;0.93;;;18.60;99.90;;;;;;5000544;28;20128;-77
2022/07/08 09:19:53;;;;;;;1.40;0.75;;;18.80;99.90;;;;;;5016809;28;20176;-77
2022/07/08 09:22:23;;;;;;;4.72;0.80;;;18.80;99.90;;;;;;4999542;28;20045;-77
2022/07/08 09:24:49;;;;;;;0.75;0.45;;;18.70;99.90;;;;;;5000311;28;20116;-76
2022/07/08 09:27:15;;;;;;;1.92;0.95;;;18.80;99.90;;;;;;5016431;28;20128;-76
2022/07/08 09:29:58;;;;;;;1.75;0.70;;;18.80;99.90;;;;;;5000070;28;20091;-77
2022/07/08 09:32:24;;;;;;;1.98;0.88;;;18.80;99.90;;;;;;5000013;28;20048;-76
2022/07/08 09:34:50;;;;;;;0.82;0.75;;;18.90;99.90;;;;;;5017018;28;20045;-84
2022/07/08 09:37:18;;;;;;;1.58;0.75;;;18.90;99.90;;;;;;5003743;28;20064;-86
2022/07/08 09:39:44;;;;;;;1.58;0.60;;;19.00;99.90;;;;;;5019482;28;20041;-86
2022/07/08 09:42:13;;;;;;;2.78;1.00;;;19.10;99.90;;;;;;4999771;28;20116;-85
2022/07/08 09:44:40;;;;;;;0.55;0.50;;;19.20;99.90;;;;;;5000044;28;20394;-85
2022/07/08 09:47:13;;;;;;;2.45;0.80;;;19.40;99.90;;;;;;4999791;28;20064;-76
2022/07/08 09:49:45;;;;;;;0.45;0.40;;;19.50;99.90;;;;;;4999933;28;20042;-76
2022/07/08 09:52:19;;;;;;;1.80;0.70;;;19.60;99.90;;;;;;5015890;28;20044;-77
2022/07/08 09:54:44;;;;;;;1.05;0.77;;;19.60;99.90;;;;;;5015862;28;20050;-82
2022/07/08 09:57:14;;;;;;;2.67;0.90;;;19.60;99.90;;;;;;4999791;28;20051;-78
2022/07/08 09:59:40;;;;;;;1.15;0.57;;;19.60;99.90;;;;;;5015779;28;20041;-78
2022/07/08 10:02:06;;;;;;;2.22;1.08;;;19.60;99.90;;;;;;4999482;28;20045;-78
2022/07/08 10:04:32;;;;;;;2.22;0.82;;;19.50;99.90;;;;;;4999640;28;20045;-79
2022/07/08 10:06:58;;;;;;;3.30;0.73;;;19.40;99.90;;;;;;5015698;28;20041;-78
2022/07/08 10:09:26;;;;;;;1.65;0.60;;;19.40;99.90;;;;;;5015650;28;20409;-78
2022/07/08 10:11:52;;;;;;;1.60;0.88;;;19.40;99.90;;;;;;4999706;28;20548;-78
2022/07/08 10:14:19;;;;;;;1.23;1.02;;;19.40;99.90;;;;;;4999380;28;20053;-79
2022/07/08 10:16:49;;;;;;;2.42;0.82;;;19.40;99.90;;;;;;4999604;28;20136;-87
2022/07/08 10:19:38;;;;;;;2.03;0.80;;;19.30;99.90;;;;;;4983184;28;20045;-79
2022/07/08 10:22:07;;;;;;;3.65;1.00;;;19.30;99.90;;;;;;5015483;28;20103;-79
2022/07/08 10:24:41;;;;;;;1.52;0.80;;;19.30;99.90;;;;;;5015743;28;20489;-79
2022/07/08 10:27:08;;;;;;;3.13;0.60;;;19.30;99.90;;;;;;4998881;28;20037;-79
2022/07/08 10:29:36;;;;;;;1.88;0.88;;;19.40;99.90;;;;;;5015363;28;20087;-80
2022/07/08 10:32:02;;;;;;;1.30;1.10;;;19.30;99.90;;;;;;4999250;28;20041;-80
2022/07/08 10:34:33;;;;;;;0.70;0.52;;;19.50;99.90;;;;;;4999362;28;20480;-80
2022/07/08 10:37:01;;;;;;;3.05;0.43;;;19.50;99.90;;;;;;5015152;28;20124;-80
2022/07/08 10:39:36;;;;;;;2.70;0.88;;;19.70;99.90;;;;;;5015093;28;20133;-80
2022/07/08 10:42:07;;;;;;;1.30;0.90;;;19.80;99.90;;;;;;5015267;28;20087;-80
2022/07/08 10:44:45;;;;;;;3.33;0.90;;;19.90;99.90;;;;;;5000085;28;20041;-80
2022/07/08 10:47:13;;;;;;;2.15;0.90;;;20.10;99.90;;;;;;4999337;28;20044;-80
2022/07/08 10:49:49;;;;;;;1.98;0.70;;;20.30;99.90;;;;;;4998856;28;20099;-80
2022/07/08 10:52:21;;;;;;;1.90;0.82;;;20.40;99.90;;;;;;4998734;28;20068;-77
2022/07/08 10:54:47;;;;;;;3.35;0.82;;;20.70;99.90;;;;;;5015019;28;20092;-76
2022/07/08 10:57:22;;;;;;;1.33;0.60;;;20.80;99.90;;;;;;5014971;28;20504;-77
2022/07/08 11:00:03;;;;;;;0.75;0.70;;;20.80;99.90;;;;;;5015307;28;20052;-78
2022/07/08 11:02:30;;;;;;;4.75;0.80;;;20.70;99.90;;;;;;5014949;28;20040;-79
2022/07/08 11:04:57;;;;;;;5.30;1.00;;;20.70;99.90;;;;;;4998433;28;20065;-78
2022/07/08 11:07:28;;;;;;;1.60;0.90;;;20.80;99.90;;;;;;4982733;28;20048;-78
2022/07/08 11:10:11;;;;;;;2.03;0.90;;;20.90;99.90;;;;;;5014957;28;20037;-80
2022/07/08 11:12:43;;;;;;;1.42;0.55;;;20.80;99.90;;;;;;4998703;28;20049;-76
2022/07/08 11:15:17;;;;;;;1.25;0.80;;;20.80;99.90;;;;;;4998522;28;20409;-79
2022/07/08 11:17:50;;;;;;;0.98;0.70;;;20.70;99.90;;;;;;5014964;28;20382;-77
2022/07/08 11:20:18;;;;;;;4.30;1.13;;;20.90;99.90;;;;;;5015235;28;20592;-81
2022/07/08 11:22:45;;;;;;;3.55;0.93;;;20.90;99.90;;;;;;4999039;28;20041;-78
2022/07/08 11:25:15;;;;;;;1.20;0.70;;;21.20;99.90;;;;;;4982780;28;20045;-79
2022/07/08 11:27:42;;;;;;;1.60;0.98;;;21.30;99.90;;;;;;4998594;28;20044;-78
2022/07/08 11:30:11;;;;;;;3.13;1.35;;;21.40;99.90;;;;;;5014687;28;20045;-77
2022/07/08 11:32:37;;;;;;;0.98;0.60;;;21.30;99.90;;;;;;5014990;28;20125;-77
2022/07/08 11:35:03;;;;;;;4.38;0.85;;;21.30;99.90;;;;;;4998656;28;20439;-76
2022/07/08 11:37:32;;;;;;;2.30;1.00;;;21.30;99.90;;;;;;5014693;28;20064;-81
2022/07/08 11:39:58;;;;;;;1.63;1.00;;;21.40;99.90;;;;;;4983149;28;20041;-77
2022/07/08 11:42:24;;;;;;;1.60;0.77;;;21.50;99.90;;;;;;4982597;28;20034;-80
2022/07/08 11:44:51;;;;;;;2.63;0.90;;;21.50;99.90;;;;;;5014613;28;20037;-80
2022/07/08 11:47:21;;;;;;;1.67;0.88;;;21.60;99.90;;;;;;5018486;28;20057;-78
2022/07/08 11:49:49;;;;;;;2.47;0.88;;;21.50;99.90;;;;;;5001933;28;20038;-86
2022/07/08 11:52:17;;;;;;;1.90;0.88;;;21.60;99.90;;;;;;5018576;28;20492;-81
2022/07/08 11:54:45;;;;;;;2.75;0.93;;;21.70;99.90;;;;;;5002331;28;20480;-79
2022/07/08 11:57:11;;;;;;;8.18;0.90;;;21.80;99.90;;;;;;5018240;28;20044;-80
2022/07/08 11:59:37;;;;;;;1.25;0.77;;;21.90;99.90;;;;;;5001717;28;20513;-78
2022/07/08 12:02:05;;;;;;;1.33;0.63;;;22.10;99.90;;;;;;5018240;28;20072;-78
2022/07/08 12:04:31;;;;;;;1.52;0.57;;;22.20;99.90;;;;;;5018282;28;20049;-82
2022/07/08 12:06:59;;;;;;;2.15;0.98;;;22.20;99.90;;;;;;5001641;28;20041;-77
2022/07/08 12:09:27;;;;;;;2.03;1.00;;;22.20;99.90;;;;;;5001586;28;20469;-79
2022/07/08 12:11:54;;;;;;;2.20;0.70;;;22.20;99.90;;;;;;5017723;28;20144;-85
2022/07/08 12:14:21;;;;;;;2.53;0.82;;;22.30;99.90;;;;;;5001658;28;20045;-83
2022/07/08 12:16:52;;;;;;;3.05;0.98;;;22.40;99.90;;;;;;5001416;28;20408;-80
2022/07/08 12:19:47;;;;;;;1.00;0.70;;;22.30;99.90;;;;;;5018011;28;20099;-80
2022/07/08 12:22:13;;;;;;;4.50;0.88;;;22.30;99.90;;;;;;4969230;28;20045;-72
2022/07/08 12:24:41;;;;;;;1.40;0.50;;;22.20;99.90;;;;;;5017822;28;20393;-73
2022/07/08 12:27:28;;;;;;;5.50;0.80;;;22.30;99.90;;;;;;5017586;28;20046;-72
2022/07/08 12:30:04;;;;;;;1.67;0.68;;;22.50;99.90;;;;;;5017543;28;20112;-71
2022/07/08 12:32:41;;;;;;;1.55;0.77;;;22.50;99.90;;;;;;5001352;28;20038;-70
2022/07/08 12:35:09;;;;;;;2.00;0.88;;;22.40;99.90;;;;;;5017437;28;20041;-81
2022/07/08 12:37:35;;;;;;;0.95;0.70;;;22.20;99.90;;;;;;5017390;28;20041;-82
2022/07/08 12:40:14;;;;;;;1.77;0.88;;;22.30;99.90;;;;;;5001086;28;20034;-87
2022/07/08 12:42:40;;;;;;;2.15;0.52;;;22.40;99.90;;;;;;5017470;28;20520;-75
2022/07/08 12:45:16;;;;;;;1.25;0.63;;;22.40;99.90;;;;;;5017575;28;20115;-75
2022/07/08 12:47:43;;;;;;;4.22;0.88;;;22.40;99.90;;;;;;5017492;28;20493;-75
2022/07/08 12:50:09;;;;;;;2.47;0.93;;;22.30;99.90;;;;;;5000797;28;20044;-83
2022/07/08 12:52:35;;;;;;;0.70;0.50;;;22.10;99.90;;;;;;5017628;28;20033;-74